sensor_id;sensor_type;location;lat;lon;timestamp;temperature;humidity
65985;HTU21D;52748;51.112;5.880;2023-07-30T00:02:17;24.87;70.69
65985;HTU21D;52748;51.112;5.880;2023-07-30T00:04:44;24.89;70.48
65985;HTU21D;52748;51.112;5.880;2023-07-30T00:07:11;24.87;70.26
65985;HTU21D;52748;51.112;5.880;2023-07-30T00:09:38;24.87;70.39
65985;HTU21D;52748;51.112;5.880;2023-07-30T00:12:05;24.87;70.39
65985;HTU21D;52748;51.112;5.880;2023-07-30T00:14:32;24.88;70.30
65985;HTU21D;52748;51.112;5.880;2023-07-30T00:16:58;24.88;70.12
65985;HTU21D;52748;51.112;5.880;2023-07-30T00:19:23;24.90;70.05
65985;HTU21D;52748;51.112;5.880;2023-07-30T00:21:49;24.91;69.78
65985;HTU21D;52748;51.112;5.880;2023-07-30T00:24:15;24.90;69.80
65985;HTU21D;52748;51.112;5.880;2023-07-30T00:26:41;24.88;69.88
65985;HTU21D;52748;51.112;5.880;2023-07-30T00:29:07;24.90;69.70
65985;HTU21D;52748;51.112;5.880;2023-07-30T00:31:33;24.89;69.57
65985;HTU21D;52748;51.112;5.880;2023-07-30T00:33:58;24.88;69.64
65985;HTU21D;52748;51.112;5.880;2023-07-30T00:36:24;24.85;69.78
65985;HTU21D;52748;51.112;5.880;2023-07-30T00:38:50;24.87;69.68
65985;HTU21D;52748;51.112;5.880;2023-07-30T00:41:17;24.85;69.82
65985;HTU21D;52748;51.112;5.880;2023-07-30T00:43:42;24.83;69.83
65985;HTU21D;52748;51.112;5.880;2023-07-30T00:46:08;24.82;69.91
65985;HTU21D;52748;51.112;5.880;2023-07-30T00:48:34;24.80;69.94
65985;HTU21D;52748;51.112;5.880;2023-07-30T00:51:00;24.80;69.86
65985;HTU21D;52748;51.112;5.880;2023-07-30T00:53:27;24.80;69.98
65985;HTU21D;52748;51.112;5.880;2023-07-30T00:55:54;24.79;69.90
65985;HTU21D;52748;51.112;5.880;2023-07-30T00:58:21;24.78;69.87
65985;HTU21D;52748;51.112;5.880;2023-07-30T01:00:47;24.79;69.89
65985;HTU21D;52748;51.112;5.880;2023-07-30T01:03:13;24.79;69.93
65985;HTU21D;52748;51.112;5.880;2023-07-30T01:05:39;24.79;69.84
65985;HTU21D;52748;51.112;5.880;2023-07-30T01:08:05;24.78;69.62
65985;HTU21D;52748;51.112;5.880;2023-07-30T01:10:32;24.77;69.53
65985;HTU21D;52748;51.112;5.880;2023-07-30T01:13:01;24.78;69.47
65985;HTU21D;52748;51.112;5.880;2023-07-30T01:15:30;24.78;69.60
65985;HTU21D;52748;51.112;5.880;2023-07-30T01:17:56;24.77;69.53
65985;HTU21D;52748;51.112;5.880;2023-07-30T01:20:22;24.77;69.64
65985;HTU21D;52748;51.112;5.880;2023-07-30T01:22:48;24.79;69.50
65985;HTU21D;52748;51.112;5.880;2023-07-30T01:25:15;24.80;69.33
65985;HTU21D;52748;51.112;5.880;2023-07-30T01:27:48;24.80;69.32
65985;HTU21D;52748;51.112;5.880;2023-07-30T01:30:18;24.80;69.29
65985;HTU21D;52748;51.112;5.880;2023-07-30T01:32:49;24.80;69.25
65985;HTU21D;52748;51.112;5.880;2023-07-30T01:35:22;24.82;69.29
65985;HTU21D;52748;51.112;5.880;2023-07-30T01:37:51;24.82;69.04
65985;HTU21D;52748;51.112;5.880;2023-07-30T01:40:17;24.82;69.00
65985;HTU21D;52748;51.112;5.880;2023-07-30T01:42:43;24.80;69.07
65985;HTU21D;52748;51.112;5.880;2023-07-30T01:45:09;24.83;68.91
65985;HTU21D;52748;51.112;5.880;2023-07-30T01:47:35;24.80;69.00
65985;HTU21D;52748;51.112;5.880;2023-07-30T01:50:01;24.79;68.98
65985;HTU21D;52748;51.112;5.880;2023-07-30T01:52:27;24.77;69.13
65985;HTU21D;52748;51.112;5.880;2023-07-30T01:54:52;24.77;69.15
65985;HTU21D;52748;51.112;5.880;2023-07-30T01:57:18;24.76;69.15
65985;HTU21D;52748;51.112;5.880;2023-07-30T01:59:44;24.75;69.10
65985;HTU21D;52748;51.112;5.880;2023-07-30T02:02:10;24.75;69.04
65985;HTU21D;52748;51.112;5.880;2023-07-30T02:04:35;24.75;68.98
65985;HTU21D;52748;51.112;5.880;2023-07-30T02:07:01;24.73;68.98
65985;HTU21D;52748;51.112;5.880;2023-07-30T02:09:27;24.75;69.03
65985;HTU21D;52748;51.112;5.880;2023-07-30T02:11:53;24.74;68.89
65985;HTU21D;52748;51.112;5.880;2023-07-30T02:14:19;24.77;68.75
65985;HTU21D;52748;51.112;5.880;2023-07-30T02:16:48;24.74;68.78
65985;HTU21D;52748;51.112;5.880;2023-07-30T02:19:13;24.74;68.73
65985;HTU21D;52748;51.112;5.880;2023-07-30T02:21:39;24.74;68.77
65985;HTU21D;52748;51.112;5.880;2023-07-30T02:24:09;24.75;68.62
65985;HTU21D;52748;51.112;5.880;2023-07-30T02:26:37;24.73;68.51
65985;HTU21D;52748;51.112;5.880;2023-07-30T02:29:03;24.74;68.55
65985;HTU21D;52748;51.112;5.880;2023-07-30T02:31:29;24.73;68.57
65985;HTU21D;52748;51.112;5.880;2023-07-30T02:33:56;24.71;68.63
65985;HTU21D;52748;51.112;5.880;2023-07-30T02:36:22;24.72;68.60
65985;HTU21D;52748;51.112;5.880;2023-07-30T02:38:48;24.71;68.64
65985;HTU21D;52748;51.112;5.880;2023-07-30T02:41:13;24.71;68.65
65985;HTU21D;52748;51.112;5.880;2023-07-30T02:43:39;24.72;68.61
65985;HTU21D;52748;51.112;5.880;2023-07-30T02:46:05;24.73;68.36
65985;HTU21D;52748;51.112;5.880;2023-07-30T02:48:32;24.75;68.28
65985;HTU21D;52748;51.112;5.880;2023-07-30T02:50:58;24.75;68.10
65985;HTU21D;52748;51.112;5.880;2023-07-30T02:53:24;24.73;68.21
65985;HTU21D;52748;51.112;5.880;2023-07-30T02:55:50;24.73;68.13
65985;HTU21D;52748;51.112;5.880;2023-07-30T02:58:16;24.73;68.02
65985;HTU21D;52748;51.112;5.880;2023-07-30T03:00:42;24.71;68.04
65985;HTU21D;52748;51.112;5.880;2023-07-30T03:03:08;24.72;67.97
65985;HTU21D;52748;51.112;5.880;2023-07-30T03:05:33;24.74;67.92
65985;HTU21D;52748;51.112;5.880;2023-07-30T03:07:59;24.75;67.91
65985;HTU21D;52748;51.112;5.880;2023-07-30T03:10:25;24.73;67.88
65985;HTU21D;52748;51.112;5.880;2023-07-30T03:12:51;24.72;67.94
65985;HTU21D;52748;51.112;5.880;2023-07-30T03:15:17;24.74;67.81
65985;HTU21D;52748;51.112;5.880;2023-07-30T03:17:43;24.75;67.63
65985;HTU21D;52748;51.112;5.880;2023-07-30T03:20:08;24.76;67.57
65985;HTU21D;52748;51.112;5.880;2023-07-30T03:22:34;24.78;67.43
65985;HTU21D;52748;51.112;5.880;2023-07-30T03:25:00;24.78;67.22
65985;HTU21D;52748;51.112;5.880;2023-07-30T03:27:26;24.74;67.35
65985;HTU21D;52748;51.112;5.880;2023-07-30T03:29:52;24.75;67.35
65985;HTU21D;52748;51.112;5.880;2023-07-30T03:32:18;24.77;67.13
65985;HTU21D;52748;51.112;5.880;2023-07-30T03:34:44;24.76;67.11
65985;HTU21D;52748;51.112;5.880;2023-07-30T03:37:10;24.77;67.07
65985;HTU21D;52748;51.112;5.880;2023-07-30T03:39:35;24.77;67.01
65985;HTU21D;52748;51.112;5.880;2023-07-30T03:42:01;24.74;67.06
65985;HTU21D;52748;51.112;5.880;2023-07-30T03:44:27;24.76;67.14
65985;HTU21D;52748;51.112;5.880;2023-07-30T03:46:53;24.76;67.10
65985;HTU21D;52748;51.112;5.880;2023-07-30T03:49:19;24.76;67.17
65985;HTU21D;52748;51.112;5.880;2023-07-30T03:51:45;24.76;67.16
65985;HTU21D;52748;51.112;5.880;2023-07-30T03:54:10;24.74;67.20
65985;HTU21D;52748;51.112;5.880;2023-07-30T03:56:36;24.73;67.20
65985;HTU21D;52748;51.112;5.880;2023-07-30T03:59:02;24.73;66.89
65985;HTU21D;52748;51.112;5.880;2023-07-30T04:01:28;24.74;66.81
65985;HTU21D;52748;51.112;5.880;2023-07-30T04:03:56;24.75;66.82
65985;HTU21D;52748;51.112;5.880;2023-07-30T04:06:22;24.75;66.68
65985;HTU21D;52748;51.112;5.880;2023-07-30T04:08:47;24.76;66.56
65985;HTU21D;52748;51.112;5.880;2023-07-30T04:11:13;24.73;66.68
65985;HTU21D;52748;51.112;5.880;2023-07-30T04:13:39;24.72;66.71
65985;HTU21D;52748;51.112;5.880;2023-07-30T04:16:07;24.69;66.85
65985;HTU21D;52748;51.112;5.880;2023-07-30T04:18:33;24.70;66.87
65985;HTU21D;52748;51.112;5.880;2023-07-30T04:20:59;24.71;66.75
65985;HTU21D;52748;51.112;5.880;2023-07-30T04:23:25;24.73;66.68
65985;HTU21D;52748;51.112;5.880;2023-07-30T04:25:51;24.72;66.66
65985;HTU21D;52748;51.112;5.880;2023-07-30T04:28:17;24.71;66.71
65985;HTU21D;52748;51.112;5.880;2023-07-30T04:30:44;24.68;66.84
65985;HTU21D;52748;51.112;5.880;2023-07-30T04:33:10;24.68;66.78
65985;HTU21D;52748;51.112;5.880;2023-07-30T04:35:39;24.65;66.93
65985;HTU21D;52748;51.112;5.880;2023-07-30T04:38:05;24.66;66.87
65985;HTU21D;52748;51.112;5.880;2023-07-30T04:40:31;24.69;66.64
65985;HTU21D;52748;51.112;5.880;2023-07-30T04:42:57;24.70;66.32
65985;HTU21D;52748;51.112;5.880;2023-07-30T04:45:23;24.68;66.31
65985;HTU21D;52748;51.112;5.880;2023-07-30T04:47:50;24.70;66.37
65985;HTU21D;52748;51.112;5.880;2023-07-30T04:50:16;24.69;66.39
65985;HTU21D;52748;51.112;5.880;2023-07-30T04:52:41;24.68;66.57
65985;HTU21D;52748;51.112;5.880;2023-07-30T04:55:07;24.69;66.23
65985;HTU21D;52748;51.112;5.880;2023-07-30T04:57:33;24.66;66.27
65985;HTU21D;52748;51.112;5.880;2023-07-30T05:00:00;24.68;66.13
65985;HTU21D;52748;51.112;5.880;2023-07-30T05:02:25;24.64;66.20
65985;HTU21D;52748;51.112;5.880;2023-07-30T05:04:51;24.63;66.31
65985;HTU21D;52748;51.112;5.880;2023-07-30T05:07:17;24.65;66.27
65985;HTU21D;52748;51.112;5.880;2023-07-30T05:09:43;24.65;66.03
65985;HTU21D;52748;51.112;5.880;2023-07-30T05:12:08;24.65;65.86
65985;HTU21D;52748;51.112;5.880;2023-07-30T05:14:34;24.64;65.94
65985;HTU21D;52748;51.112;5.880;2023-07-30T05:17:00;24.62;66.01
65985;HTU21D;52748;51.112;5.880;2023-07-30T05:19:26;24.62;66.16
65985;HTU21D;52748;51.112;5.880;2023-07-30T05:21:51;24.59;66.24
65985;HTU21D;52748;51.112;5.880;2023-07-30T05:24:17;24.60;66.21
65985;HTU21D;52748;51.112;5.880;2023-07-30T05:26:43;24.63;66.01
65985;HTU21D;52748;51.112;5.880;2023-07-30T05:29:09;24.64;65.63
65985;HTU21D;52748;51.112;5.880;2023-07-30T05:31:34;24.65;65.60
65985;HTU21D;52748;51.112;5.880;2023-07-30T05:34:00;24.65;65.57
65985;HTU21D;52748;51.112;5.880;2023-07-30T05:36:26;24.65;65.51
65985;HTU21D;52748;51.112;5.880;2023-07-30T05:38:52;24.64;65.54
65985;HTU21D;52748;51.112;5.880;2023-07-30T05:41:18;24.64;65.45
65985;HTU21D;52748;51.112;5.880;2023-07-30T05:43:43;24.62;65.53
65985;HTU21D;52748;51.112;5.880;2023-07-30T05:46:09;24.62;65.47
65985;HTU21D;52748;51.112;5.880;2023-07-30T05:48:35;24.61;65.53
65985;HTU21D;52748;51.112;5.880;2023-07-30T05:51:01;24.58;65.60
65985;HTU21D;52748;51.112;5.880;2023-07-30T05:53:26;24.59;65.75
65985;HTU21D;52748;51.112;5.880;2023-07-30T05:55:52;24.60;65.66
65985;HTU21D;52748;51.112;5.880;2023-07-30T05:58:18;24.58;65.72
65985;HTU21D;52748;51.112;5.880;2023-07-30T06:00:44;24.60;65.76
65985;HTU21D;52748;51.112;5.880;2023-07-30T06:03:11;24.60;65.72
65985;HTU21D;52748;51.112;5.880;2023-07-30T06:05:41;24.60;65.73
65985;HTU21D;52748;51.112;5.880;2023-07-30T06:08:07;24.59;65.69
65985;HTU21D;52748;51.112;5.880;2023-07-30T06:10:37;24.62;65.68
65985;HTU21D;52748;51.112;5.880;2023-07-30T06:13:04;24.61;65.46
65985;HTU21D;52748;51.112;5.880;2023-07-30T06:15:31;24.59;65.59
65985;HTU21D;52748;51.112;5.880;2023-07-30T06:17:58;24.58;65.70
65985;HTU21D;52748;51.112;5.880;2023-07-30T06:20:24;24.60;65.46
65985;HTU21D;52748;51.112;5.880;2023-07-30T06:22:49;24.59;65.38
65985;HTU21D;52748;51.112;5.880;2023-07-30T06:25:15;24.59;65.56
65985;HTU21D;52748;51.112;5.880;2023-07-30T06:27:41;24.59;65.57
65985;HTU21D;52748;51.112;5.880;2023-07-30T06:30:07;24.58;65.55
65985;HTU21D;52748;51.112;5.880;2023-07-30T06:32:33;24.57;65.59
65985;HTU21D;52748;51.112;5.880;2023-07-30T06:34:59;24.56;65.71
65985;HTU21D;52748;51.112;5.880;2023-07-30T06:37:25;24.58;65.74
65985;HTU21D;52748;51.112;5.880;2023-07-30T06:39:50;24.61;65.48
65985;HTU21D;52748;51.112;5.880;2023-07-30T06:42:16;24.61;65.43
65985;HTU21D;52748;51.112;5.880;2023-07-30T06:44:42;24.62;65.50
65985;HTU21D;52748;51.112;5.880;2023-07-30T06:47:08;24.63;65.41
65985;HTU21D;52748;51.112;5.880;2023-07-30T06:49:34;24.62;65.50
65985;HTU21D;52748;51.112;5.880;2023-07-30T06:52:00;24.61;65.70
65985;HTU21D;52748;51.112;5.880;2023-07-30T06:54:30;24.61;65.80
65985;HTU21D;52748;51.112;5.880;2023-07-30T06:56:55;24.58;65.88
65985;HTU21D;52748;51.112;5.880;2023-07-30T06:59:21;24.57;66.10
65985;HTU21D;52748;51.112;5.880;2023-07-30T07:01:47;24.59;66.14
65985;HTU21D;52748;51.112;5.880;2023-07-30T07:04:13;24.61;65.90
65985;HTU21D;52748;51.112;5.880;2023-07-30T07:06:39;24.63;65.76
65985;HTU21D;52748;51.112;5.880;2023-07-30T07:09:05;24.63;65.69
65985;HTU21D;52748;51.112;5.880;2023-07-30T07:11:31;24.63;65.85
65985;HTU21D;52748;51.112;5.880;2023-07-30T07:13:57;24.63;65.85
65985;HTU21D;52748;51.112;5.880;2023-07-30T07:16:23;24.62;65.91
65985;HTU21D;52748;51.112;5.880;2023-07-30T07:18:49;24.64;65.79
65985;HTU21D;52748;51.112;5.880;2023-07-30T07:21:15;24.63;65.56
65985;HTU21D;52748;51.112;5.880;2023-07-30T07:23:41;24.62;65.69
65985;HTU21D;52748;51.112;5.880;2023-07-30T07:26:06;24.60;65.87
65985;HTU21D;52748;51.112;5.880;2023-07-30T07:28:32;24.61;65.86
65985;HTU21D;52748;51.112;5.880;2023-07-30T07:30:58;24.60;65.95
65985;HTU21D;52748;51.112;5.880;2023-07-30T07:33:24;24.59;65.98
65985;HTU21D;52748;51.112;5.880;2023-07-30T07:35:50;24.59;65.99
65985;HTU21D;52748;51.112;5.880;2023-07-30T07:38:15;24.59;65.97
65985;HTU21D;52748;51.112;5.880;2023-07-30T07:40:41;24.60;66.01
65985;HTU21D;52748;51.112;5.880;2023-07-30T07:43:08;24.62;65.82
65985;HTU21D;52748;51.112;5.880;2023-07-30T07:45:34;24.63;65.66
65985;HTU21D;52748;51.112;5.880;2023-07-30T07:48:00;24.60;65.85
65985;HTU21D;52748;51.112;5.880;2023-07-30T07:50:26;24.60;66.03
65985;HTU21D;52748;51.112;5.880;2023-07-30T07:52:52;24.62;65.97
65985;HTU21D;52748;51.112;5.880;2023-07-30T07:55:17;24.60;65.85
65985;HTU21D;52748;51.112;5.880;2023-07-30T07:57:43;24.59;66.01
65985;HTU21D;52748;51.112;5.880;2023-07-30T08:00:09;24.58;66.14
65985;HTU21D;52748;51.112;5.880;2023-07-30T08:02:40;24.57;66.17
65985;HTU21D;52748;51.112;5.880;2023-07-30T08:05:06;24.58;66.15
65985;HTU21D;52748;51.112;5.880;2023-07-30T08:07:33;24.57;66.24
65985;HTU21D;52748;51.112;5.880;2023-07-30T08:09:58;24.58;66.26
65985;HTU21D;52748;51.112;5.880;2023-07-30T08:12:24;24.61;66.06
65985;HTU21D;52748;51.112;5.880;2023-07-30T08:14:50;24.58;66.21
65985;HTU21D;52748;51.112;5.880;2023-07-30T08:17:18;24.55;63.77
65985;HTU21D;52748;51.112;5.880;2023-07-30T08:19:44;24.49;63.05
65985;HTU21D;52748;51.112;5.880;2023-07-30T08:22:10;24.48;62.67
65985;HTU21D;52748;51.112;5.880;2023-07-30T08:24:35;24.42;62.00
65985;HTU21D;52748;51.112;5.880;2023-07-30T08:27:01;24.38;61.54
65985;HTU21D;52748;51.112;5.880;2023-07-30T08:29:27;24.36;61.62
65985;HTU21D;52748;51.112;5.880;2023-07-30T08:31:53;24.35;62.58
65985;HTU21D;52748;51.112;5.880;2023-07-30T08:34:21;24.36;62.43
65985;HTU21D;52748;51.112;5.880;2023-07-30T08:36:48;24.32;61.31
65985;HTU21D;52748;51.112;5.880;2023-07-30T08:39:13;24.31;61.22
65985;HTU21D;52748;51.112;5.880;2023-07-30T08:41:40;24.32;60.50
65985;HTU21D;52748;51.112;5.880;2023-07-30T08:44:06;24.33;60.09
65985;HTU21D;52748;51.112;5.880;2023-07-30T08:46:32;24.32;59.90
65985;HTU21D;52748;51.112;5.880;2023-07-30T08:48:58;24.29;59.67
65985;HTU21D;52748;51.112;5.880;2023-07-30T08:51:25;24.26;59.42
65985;HTU21D;52748;51.112;5.880;2023-07-30T08:53:52;24.23;59.04
65985;HTU21D;52748;51.112;5.880;2023-07-30T08:56:18;24.20;59.00
65985;HTU21D;52748;51.112;5.880;2023-07-30T08:58:44;24.14;58.77
65985;HTU21D;52748;51.112;5.880;2023-07-30T09:01:12;24.03;59.24
65985;HTU21D;52748;51.112;5.880;2023-07-30T09:03:40;24.01;59.90
65985;HTU21D;52748;51.112;5.880;2023-07-30T09:06:07;24.00;60.12
65985;HTU21D;52748;51.112;5.880;2023-07-30T09:08:32;23.99;60.27
65985;HTU21D;52748;51.112;5.880;2023-07-30T09:11:08;24.01;60.18
65985;HTU21D;52748;51.112;5.880;2023-07-30T09:13:39;24.03;60.05
65985;HTU21D;52748;51.112;5.880;2023-07-30T09:16:11;24.05;59.77
65985;HTU21D;52748;51.112;5.880;2023-07-30T09:18:39;24.09;59.35
65985;HTU21D;52748;51.112;5.880;2023-07-30T09:21:06;24.10;59.44
65985;HTU21D;52748;51.112;5.880;2023-07-30T09:23:32;24.15;58.86
65985;HTU21D;52748;51.112;5.880;2023-07-30T09:25:58;24.18;59.02
65985;HTU21D;52748;51.112;5.880;2023-07-30T09:28:31;24.21;59.21
65985;HTU21D;52748;51.112;5.880;2023-07-30T09:31:15;24.24;59.35
65985;HTU21D;52748;51.112;5.880;2023-07-30T09:33:41;24.26;59.34
65985;HTU21D;52748;51.112;5.880;2023-07-30T09:36:08;24.33;59.28
65985;HTU21D;52748;51.112;5.880;2023-07-30T09:38:44;24.34;59.59
65985;HTU21D;52748;51.112;5.880;2023-07-30T09:41:11;24.35;59.86
65985;HTU21D;52748;51.112;5.880;2023-07-30T09:43:37;24.36;60.15
65985;HTU21D;52748;51.112;5.880;2023-07-30T09:46:06;24.38;60.31
65985;HTU21D;52748;51.112;5.880;2023-07-30T09:48:34;24.39;60.44
65985;HTU21D;52748;51.112;5.880;2023-07-30T09:51:02;24.40;60.43
65985;HTU21D;52748;51.112;5.880;2023-07-30T09:53:30;24.45;60.32
65985;HTU21D;52748;51.112;5.880;2023-07-30T09:56:01;24.46;60.23
65985;HTU21D;52748;51.112;5.880;2023-07-30T09:58:29;24.50;60.14
65985;HTU21D;52748;51.112;5.880;2023-07-30T10:00:58;24.50;60.05
65985;HTU21D;52748;51.112;5.880;2023-07-30T10:03:26;24.53;59.97
65985;HTU21D;52748;51.112;5.880;2023-07-30T10:06:02;24.51;59.93
65985;HTU21D;52748;51.112;5.880;2023-07-30T10:08:33;24.48;60.05
65985;HTU21D;52748;51.112;5.880;2023-07-30T10:11:03;24.47;60.16
65985;HTU21D;52748;51.112;5.880;2023-07-30T10:13:31;24.46;60.19
65985;HTU21D;52748;51.112;5.880;2023-07-30T10:15:57;24.47;60.17
65985;HTU21D;52748;51.112;5.880;2023-07-30T10:18:38;24.46;59.61
65985;HTU21D;52748;51.112;5.880;2023-07-30T10:21:07;24.46;58.47
65985;HTU21D;52748;51.112;5.880;2023-07-30T10:23:35;24.46;58.18
65985;HTU21D;52748;51.112;5.880;2023-07-30T10:26:10;24.43;58.16
65985;HTU21D;52748;51.112;5.880;2023-07-30T10:28:37;24.38;58.64
65985;HTU21D;52748;51.112;5.880;2023-07-30T10:31:06;24.38;58.68
65985;HTU21D;52748;51.112;5.880;2023-07-30T10:33:50;24.39;58.38
65985;HTU21D;52748;51.112;5.880;2023-07-30T10:36:31;24.42;58.74
65985;HTU21D;52748;51.112;5.880;2023-07-30T10:39:20;24.43;58.87
65985;HTU21D;52748;51.112;5.880;2023-07-30T10:41:53;24.44;59.18
65985;HTU21D;52748;51.112;5.880;2023-07-30T10:45:05;24.45;59.03
65985;HTU21D;52748;51.112;5.880;2023-07-30T10:47:12;24.49;58.95
65985;HTU21D;52748;51.112;5.880;2023-07-30T10:49:39;24.51;58.76
65985;HTU21D;52748;51.112;5.880;2023-07-30T10:52:12;24.54;58.54
65985;HTU21D;52748;51.112;5.880;2023-07-30T10:54:38;24.54;58.67
65985;HTU21D;52748;51.112;5.880;2023-07-30T10:57:04;24.51;58.70
65985;HTU21D;52748;51.112;5.880;2023-07-30T10:59:37;24.49;58.30
65985;HTU21D;52748;51.112;5.880;2023-07-30T11:02:04;24.51;58.45
65985;HTU21D;52748;51.112;5.880;2023-07-30T11:04:34;24.53;58.26
65985;HTU21D;52748;51.112;5.880;2023-07-30T11:07:00;24.53;58.22
65985;HTU21D;52748;51.112;5.880;2023-07-30T11:09:27;24.55;58.13
65985;HTU21D;52748;51.112;5.880;2023-07-30T11:11:55;24.55;57.85
65985;HTU21D;52748;51.112;5.880;2023-07-30T11:14:23;24.54;56.86
65985;HTU21D;52748;51.112;5.880;2023-07-30T11:16:59;24.53;56.48
65985;HTU21D;52748;51.112;5.880;2023-07-30T11:19:26;24.55;56.64
65985;HTU21D;52748;51.112;5.880;2023-07-30T11:21:55;24.55;56.87
65985;HTU21D;52748;51.112;5.880;2023-07-30T11:24:21;24.55;57.56
65985;HTU21D;52748;51.112;5.880;2023-07-30T11:27:00;24.53;58.02
65985;HTU21D;52748;51.112;5.880;2023-07-30T11:29:27;24.51;58.19
65985;HTU21D;52748;51.112;5.880;2023-07-30T11:31:57;24.49;58.48
65985;HTU21D;52748;51.112;5.880;2023-07-30T11:34:26;24.46;57.93
65985;HTU21D;52748;51.112;5.880;2023-07-30T11:36:53;24.35;57.26
65985;HTU21D;52748;51.112;5.880;2023-07-30T11:39:19;24.28;57.33
65985;HTU21D;52748;51.112;5.880;2023-07-30T11:41:46;24.28;57.61
65985;HTU21D;52748;51.112;5.880;2023-07-30T11:44:31;24.32;57.85
65985;HTU21D;52748;51.112;5.880;2023-07-30T11:46:57;24.39;57.84
65985;HTU21D;52748;51.112;5.880;2023-07-30T11:49:23;24.42;57.74
65985;HTU21D;52748;51.112;5.880;2023-07-30T11:51:49;24.46;57.61
65985;HTU21D;52748;51.112;5.880;2023-07-30T11:54:21;24.45;57.65
65985;HTU21D;52748;51.112;5.880;2023-07-30T11:56:53;24.44;57.75
65985;HTU21D;52748;51.112;5.880;2023-07-30T11:59:20;24.46;57.80
65985;HTU21D;52748;51.112;5.880;2023-07-30T12:01:47;24.49;57.71
65985;HTU21D;52748;51.112;5.880;2023-07-30T12:04:13;24.51;57.60
65985;HTU21D;52748;51.112;5.880;2023-07-30T12:06:49;24.47;57.69
65985;HTU21D;52748;51.112;5.880;2023-07-30T12:09:20;24.48;57.73
65985;HTU21D;52748;51.112;5.880;2023-07-30T12:11:56;24.57;57.40
65985;HTU21D;52748;51.112;5.880;2023-07-30T12:14:29;24.51;57.52
65985;HTU21D;52748;51.112;5.880;2023-07-30T12:16:59;24.51;57.71
65985;HTU21D;52748;51.112;5.880;2023-07-30T12:19:26;24.49;57.79
65985;HTU21D;52748;51.112;5.880;2023-07-30T12:21:52;24.54;57.80
65985;HTU21D;52748;51.112;5.880;2023-07-30T12:24:18;24.54;57.77
65985;HTU21D;52748;51.112;5.880;2023-07-30T12:26:43;24.56;57.88
65985;HTU21D;52748;51.112;5.880;2023-07-30T12:29:09;24.57;57.96
65985;HTU21D;52748;51.112;5.880;2023-07-30T12:31:35;24.56;58.38
65985;HTU21D;52748;51.112;5.880;2023-07-30T12:34:01;24.54;58.90
65985;HTU21D;52748;51.112;5.880;2023-07-30T12:36:26;24.54;59.86
65985;HTU21D;52748;51.112;5.880;2023-07-30T12:38:53;24.54;60.18
65985;HTU21D;52748;51.112;5.880;2023-07-30T12:41:20;24.54;60.57
65985;HTU21D;52748;51.112;5.880;2023-07-30T12:43:52;24.54;60.70
65985;HTU21D;52748;51.112;5.880;2023-07-30T12:46:19;24.54;60.87
65985;HTU21D;52748;51.112;5.880;2023-07-30T12:48:44;24.57;60.96
65985;HTU21D;52748;51.112;5.880;2023-07-30T12:51:10;24.60;61.02
65985;HTU21D;52748;51.112;5.880;2023-07-30T12:53:36;24.59;61.04
65985;HTU21D;52748;51.112;5.880;2023-07-30T12:56:02;24.59;60.83
65985;HTU21D;52748;51.112;5.880;2023-07-30T12:58:28;24.59;60.66
65985;HTU21D;52748;51.112;5.880;2023-07-30T13:00:53;24.60;60.41
65985;HTU21D;52748;51.112;5.880;2023-07-30T13:03:19;24.62;60.11
65985;HTU21D;52748;51.112;5.880;2023-07-30T13:05:45;24.62;60.09
65985;HTU21D;52748;51.112;5.880;2023-07-30T13:08:11;24.59;60.23
65985;HTU21D;52748;51.112;5.880;2023-07-30T13:10:37;24.57;60.29
65985;HTU21D;52748;51.112;5.880;2023-07-30T13:13:02;24.56;59.31
65985;HTU21D;52748;51.112;5.880;2023-07-30T13:15:28;24.58;59.09
65985;HTU21D;52748;51.112;5.880;2023-07-30T13:17:54;24.58;58.70
65985;HTU21D;52748;51.112;5.880;2023-07-30T13:20:20;24.59;58.16
65985;HTU21D;52748;51.112;5.880;2023-07-30T13:22:46;24.60;57.77
65985;HTU21D;52748;51.112;5.880;2023-07-30T13:25:12;24.61;57.09
65985;HTU21D;52748;51.112;5.880;2023-07-30T13:27:37;24.59;56.28
65985;HTU21D;52748;51.112;5.880;2023-07-30T13:30:04;24.59;55.74
65985;HTU21D;52748;51.112;5.880;2023-07-30T13:32:30;24.58;55.85
65985;HTU21D;52748;51.112;5.880;2023-07-30T13:34:55;24.59;55.27
65985;HTU21D;52748;51.112;5.880;2023-07-30T13:37:21;24.60;54.91
65985;HTU21D;52748;51.112;5.880;2023-07-30T13:39:47;24.59;55.40
65985;HTU21D;52748;51.112;5.880;2023-07-30T13:42:13;24.59;54.82
65985;HTU21D;52748;51.112;5.880;2023-07-30T13:44:39;24.60;55.12
65985;HTU21D;52748;51.112;5.880;2023-07-30T13:47:05;24.59;54.68
65985;HTU21D;52748;51.112;5.880;2023-07-30T13:49:31;24.63;54.39
65985;HTU21D;52748;51.112;5.880;2023-07-30T13:51:56;24.64;53.87
65985;HTU21D;52748;51.112;5.880;2023-07-30T13:54:22;24.64;53.69
65985;HTU21D;52748;51.112;5.880;2023-07-30T13:56:56;24.63;54.10
65985;HTU21D;52748;51.112;5.880;2023-07-30T13:59:22;24.64;53.85
65985;HTU21D;52748;51.112;5.880;2023-07-30T14:01:48;24.68;53.49
65985;HTU21D;52748;51.112;5.880;2023-07-30T14:04:14;24.66;53.46
65985;HTU21D;52748;51.112;5.880;2023-07-30T14:06:39;24.66;53.51
65985;HTU21D;52748;51.112;5.880;2023-07-30T14:09:05;24.66;53.58
65985;HTU21D;52748;51.112;5.880;2023-07-30T14:11:31;24.68;53.46
65985;HTU21D;52748;51.112;5.880;2023-07-30T14:13:57;24.70;53.20
65985;HTU21D;52748;51.112;5.880;2023-07-30T14:16:23;24.73;53.32
65985;HTU21D;52748;51.112;5.880;2023-07-30T14:18:49;24.74;53.12
65985;HTU21D;52748;51.112;5.880;2023-07-30T14:21:15;24.71;52.99
65985;HTU21D;52748;51.112;5.880;2023-07-30T14:23:41;24.71;52.69
65985;HTU21D;52748;51.112;5.880;2023-07-30T14:26:07;24.71;52.40
65985;HTU21D;52748;51.112;5.880;2023-07-30T14:28:33;24.70;52.25
65985;HTU21D;52748;51.112;5.880;2023-07-30T14:30:58;24.72;51.98
65985;HTU21D;52748;51.112;5.880;2023-07-30T14:33:24;24.69;51.87
65985;HTU21D;52748;51.112;5.880;2023-07-30T14:35:50;24.72;51.87
65985;HTU21D;52748;51.112;5.880;2023-07-30T14:38:16;24.73;51.56
65985;HTU21D;52748;51.112;5.880;2023-07-30T14:40:42;24.72;51.45
65985;HTU21D;52748;51.112;5.880;2023-07-30T14:43:09;24.70;51.36
65985;HTU21D;52748;51.112;5.880;2023-07-30T14:45:34;24.69;51.17
65985;HTU21D;52748;51.112;5.880;2023-07-30T14:48:00;24.69;51.44
65985;HTU21D;52748;51.112;5.880;2023-07-30T14:50:27;24.68;51.86
65985;HTU21D;52748;51.112;5.880;2023-07-30T14:52:53;24.70;51.51
65985;HTU21D;52748;51.112;5.880;2023-07-30T14:55:19;24.69;51.43
65985;HTU21D;52748;51.112;5.880;2023-07-30T14:57:44;24.70;51.14
65985;HTU21D;52748;51.112;5.880;2023-07-30T15:00:11;24.73;51.08
65985;HTU21D;52748;51.112;5.880;2023-07-30T15:02:39;24.76;50.92
65985;HTU21D;52748;51.112;5.880;2023-07-30T15:05:06;24.74;50.55
65985;HTU21D;52748;51.112;5.880;2023-07-30T15:07:33;24.78;50.72
65985;HTU21D;52748;51.112;5.880;2023-07-30T15:09:59;24.80;49.53
65985;HTU21D;52748;51.112;5.880;2023-07-30T15:12:24;24.80;50.18
65985;HTU21D;52748;51.112;5.880;2023-07-30T15:14:50;24.79;50.21